Time,TemperatureF,DewpointF,PressureIn,WindDirection,WindDirectionDegrees,WindSpeedMPH,WindSpeedGustMPH,Humidity,HourlyPrecipIn,Conditions,Clouds,dailyrainin,SoftwareType,DateUTC
2013-07-21 00:02:00,87.5,70.4,29.71,SE,135,0.0,0.0,57,0.00,,,0.14,Wunderground v.1.15,2013-07-21 07:02:00,
2013-07-21 00:07:00,87.7,70.6,29.71,SE,142,0.0,0.0,57,0.00,,,0.14,Wunderground v.1.15,2013-07-21 07:07:00,
2013-07-21 00:13:00,87.9,69.2,29.72,SE,140,0.0,0.0,54,0.00,,,0.14,Wunderground v.1.15,2013-07-21 07:13:00,
2013-07-21 00:18:00,88.3,69.5,29.71,SE,142,0.0,0.0,54,0.00,,,0.14,Wunderground v.1.15,2013-07-21 07:18:00,
2013-07-21 00:23:00,88.5,69.2,29.71,WSW,241,0.0,1.0,53,0.00,,,0.14,Wunderground v.1.15,2013-07-21 07:23:00,
2013-07-21 00:28:00,88.9,69.6,29.71,WSW,243,2.0,2.0,53,0.00,,,0.14,Wunderground v.1.15,2013-07-21 07:28:00,
2013-07-21 00:33:00,88.7,68.8,29.72,WSW,250,0.0,4.0,52,0.00,,,0.14,Wunderground v.1.15,2013-07-21 07:33:00,
2013-07-21 00:38:00,88.7,69.9,29.72,SSE,155,0.0,4.0,54,0.00,,,0.14,Wunderground v.1.15,2013-07-21 07:38:00,
2013-07-21 00:44:00,88.5,70.3,29.72,SW,214,1.0,4.0,55,0.00,,,0.14,Wunderground v.1.15,2013-07-21 07:44:00,
2013-07-21 00:49:00,88.1,70.4,29.72,WSW,238,3.0,4.0,56,0.00,,,0.14,Wunderground v.1.15,2013-07-21 07:49:00,
2013-07-21 00:54:00,87.5,71.4,29.72,SW,224,2.0,4.0,59,0.00,,,0.14,Wunderground v.1.15,2013-07-21 07:54:00,
2013-07-21 00:59:00,86.9,71.3,29.72,WSW,243,1.0,4.0,60,0.00,,,0.14,Wunderground v.1.15,2013-07-21 07:59:00,
2013-07-21 01:04:00,86.5,71.5,29.72,WSW,250,3.0,4.0,61,0.00,,,0.00,Wunderground v.1.15,2013-07-21 08:04:00,
2013-07-21 01:09:00,86.0,71.5,29.72,WSW,243,2.0,4.0,62,0.00,,,0.00,Wunderground v.1.15,2013-07-21 08:09:00,
2013-07-21 01:14:00,85.6,72.0,29.73,SW,214,2.0,3.0,64,0.00,,,0.00,Wunderground v.1.15,2013-07-21 08:14:00,
2013-07-21 01:19:00,85.4,71.8,29.73,SW,221,0.0,3.0,64,0.00,,,0.00,Wunderground v.1.15,2013-07-21 08:19:00,
2013-07-21 01:25:00,85.3,71.7,29.73,SW,233,0.0,2.0,64,0.00,,,0.00,Wunderground v.1.15,2013-07-21 08:25:00,
2013-07-21 01:30:00,85.1,71.5,29.73,SW,232,0.0,0.0,64,0.00,,,0.00,Wunderground v.1.15,2013-07-21 08:30:00,
2013-07-21 01:35:00,85.2,71.6,29.73,South,186,0.0,0.0,64,0.00,,,0.00,Wunderground v.1.15,2013-07-21 08:35:00,
2013-07-21 01:40:00,85.4,71.4,29.73,WSW,240,0.0,0.0,63,0.00,,,0.00,Wunderground v.1.15,2013-07-21 08:40:00,
2013-07-21 01:45:00,85.3,71.3,29.73,WSW,243,0.0,2.0,63,0.00,,,0.00,Wunderground v.1.15,2013-07-21 08:45:00,
2013-07-21 01:50:00,85.4,70.9,29.73,WSW,242,2.0,2.0,62,0.00,,,0.00,Wunderground v.1.15,2013-07-21 08:50:00,
2013-07-21 01:55:00,85.5,70.5,29.73,SW,232,1.0,2.0,61,0.00,,,0.00,Wunderground v.1.15,2013-07-21 08:55:00,
2013-07-21 02:00:00,85.5,70.5,29.73,WSW,240,3.0,3.0,61,0.00,,,0.00,Wunderground v.1.15,2013-07-21 09:00:00,
2013-07-21 02:05:00,85.3,70.3,29.72,WSW,255,0.0,3.0,61,0.00,,,0.00,Wunderground v.1.15,2013-07-21 09:05:00,
2013-07-21 02:10:00,85.0,70.5,29.73,SW,215,0.0,1.0,62,0.00,,,0.00,Wunderground v.1.15,2013-07-21 09:10:00,
2013-07-21 02:15:00,84.8,70.3,29.72,WSW,252,0.0,2.0,62,0.00,,,0.00,Wunderground v.1.15,2013-07-21 09:15:00,
2013-07-21 02:20:00,84.7,69.8,29.72,SW,214,0.0,2.0,61,0.00,,,0.00,Wunderground v.1.15,2013-07-21 09:20:00,
2013-07-21 02:25:00,84.7,69.8,29.72,SE,127,0.0,2.0,61,0.00,,,0.00,Wunderground v.1.15,2013-07-21 09:25:00,
2013-07-21 02:30:00,84.6,69.7,29.72,WSW,240,1.0,1.0,61,0.00,,,0.00,Wunderground v.1.15,2013-07-21 09:30:00,
2013-07-21 02:35:00,84.5,69.6,29.72,WSW,256,2.0,5.0,61,0.00,,,0.00,Wunderground v.1.15,2013-07-21 09:35:00,
2013-07-21 02:40:00,84.4,69.5,29.71,WSW,239,0.0,2.0,61,0.00,,,0.00,Wunderground v.1.15,2013-07-21 09:40:00,
2013-07-21 02:45:00,84.3,69.4,29.71,SW,219,1.0,2.0,61,0.00,,,0.00,Wunderground v.1.15,2013-07-21 09:45:00,
2013-07-21 02:50:00,84.4,69.5,29.71,SE,125,0.0,1.0,61,0.00,,,0.00,Wunderground v.1.15,2013-07-21 09:50:00,
2013-07-21 02:55:00,84.5,69.6,29.70,SE,124,0.0,3.0,61,0.00,,,0.00,Wunderground v.1.15,2013-07-21 09:55:00,
2013-07-21 03:00:00,84.5,69.1,29.70,SSE,153,1.0,2.0,60,0.00,,,0.00,Wunderground v.1.15,2013-07-21 10:00:00,
2013-07-21 03:05:00,84.5,69.6,29.71,SSE,148,0.0,3.0,61,0.00,,,0.00,Wunderground v.1.15,2013-07-21 10:05:00,
2013-07-21 03:10:00,84.4,69.5,29.71,SSE,160,0.0,0.0,61,0.00,,,0.00,Wunderground v.1.15,2013-07-21 10:10:00,
2013-07-21 03:16:00,84.3,69.4,29.71,SE,124,0.0,1.0,61,0.00,,,0.00,Wunderground v.1.15,2013-07-21 10:16:00,
2013-07-21 03:21:00,84.2,69.3,29.71,South,179,0.0,0.0,61,0.00,,,0.00,Wunderground v.1.15,2013-07-21 10:21:00,
2013-07-21 03:26:00,84.1,69.2,29.72,South,179,0.0,0.0,61,0.00,,,0.00,Wunderground v.1.15,2013-07-21 10:26:00,
2013-07-21 03:31:00,84.1,69.2,29.72,SW,232,0.0,1.0,61,0.00,,,0.00,Wunderground v.1.15,2013-07-21 10:31:00,
2013-07-21 03:36:00,84.1,69.2,29.72,SW,232,0.0,1.0,61,0.00,,,0.00,Wunderground v.1.15,2013-07-21 10:36:00,
2013-07-21 03:41:00,84.1,69.7,29.72,SW,232,0.0,1.0,62,0.00,,,0.00,Wunderground v.1.15,2013-07-21 10:41:00,
2013-07-21 03:46:00,84.0,70.5,29.72,West,273,0.0,1.0,64,0.00,,,0.00,Wunderground v.1.15,2013-07-21 10:46:00,
2013-07-21 03:51:00,82.6,72.2,29.73,WNW,294,0.0,3.0,71,0.00,,,0.00,Wunderground v.1.15,2013-07-21 10:51:00,
2013-07-21 03:56:00,81.1,72.0,29.73,WNW,298,1.0,3.0,74,0.00,,,0.00,Wunderground v.1.15,2013-07-21 10:56:00,
2013-07-21 04:01:00,80.5,71.8,29.73,NW,314,0.0,1.0,75,0.00,,,0.00,Wunderground v.1.15,2013-07-21 11:01:00,
2013-07-21 04:06:00,80.3,71.3,29.73,North,355,0.0,1.0,74,0.00,,,0.00,Wunderground v.1.15,2013-07-21 11:06:00,
2013-07-21 04:11:00,80.5,71.4,29.73,North,359,1.0,1.0,74,0.00,,,0.00,Wunderground v.1.15,2013-07-21 11:11:00,
2013-07-21 04:16:00,80.5,71.0,29.74,North,358,0.0,1.0,73,0.00,,,0.00,Wunderground v.1.15,2013-07-21 11:16:00,
2013-07-21 04:21:00,80.5,70.6,29.74,NNW,339,1.0,1.0,72,0.00,,,0.00,Wunderground v.1.15,2013-07-21 11:21:00,
2013-07-21 04:26:00,80.6,70.7,29.74,WNW,300,0.0,1.0,72,0.00,,,0.00,Wunderground v.1.15,2013-07-21 11:26:00,
2013-07-21 04:31:00,80.7,70.8,29.73,WNW,293,0.0,0.0,72,0.00,,,0.00,Wunderground v.1.15,2013-07-21 11:31:00,
2013-07-21 04:36:00,80.7,70.8,29.74,WSW,238,1.0,2.0,72,0.00,,,0.00,Wunderground v.1.15,2013-07-21 11:36:00,
2013-07-21 04:41:00,80.7,70.8,29.74,WSW,239,3.0,3.0,72,0.00,,,0.00,Wunderground v.1.15,2013-07-21 11:41:00,
2013-07-21 04:46:00,80.7,70.8,29.74,WSW,245,0.0,4.0,72,0.00,,,0.00,Wunderground v.1.15,2013-07-21 11:46:00,
2013-07-21 04:51:00,80.7,70.8,29.73,WSW,246,0.0,2.0,72,0.00,,,0.00,Wunderground v.1.15,2013-07-21 11:51:00,
2013-07-21 04:56:00,80.7,70.4,29.73,SW,218,0.0,4.0,71,0.00,,,0.00,Wunderground v.1.15,2013-07-21 11:56:00,
2013-07-21 05:01:00,80.8,70.5,29.73,ESE,123,0.0,1.0,71,0.00,,,0.00,Wunderground v.1.15,2013-07-21 12:01:00,
2013-07-21 05:06:00,80.7,70.4,29.73,South,180,0.0,1.0,71,0.00,,,0.00,Wunderground v.1.15,2013-07-21 12:06:00,
2013-07-21 05:11:00,80.8,69.7,29.73,SSE,160,0.0,2.0,69,0.00,,,0.00,Wunderground v.1.15,2013-07-21 12:11:00,
2013-07-21 05:16:00,81.0,69.9,29.73,ESE,120,0.0,2.0,69,0.00,,,0.00,Wunderground v.1.15,2013-07-21 12:16:00,
2013-07-21 05:21:00,81.1,69.5,29.73,SSE,157,2.0,2.0,68,0.00,,,0.00,Wunderground v.1.15,2013-07-21 12:21:00,
2013-07-21 05:26:00,81.3,69.3,29.73,ESE,115,1.0,4.0,67,0.00,,,0.00,Wunderground v.1.15,2013-07-21 12:26:00,
2013-07-21 05:31:00,81.5,69.9,29.73,North,355,0.0,1.0,68,0.00,,,0.00,Wunderground v.1.15,2013-07-21 12:31:00,
2013-07-21 05:36:00,81.5,70.3,29.73,East,82,1.0,1.0,69,0.00,,,0.00,Wunderground v.1.15,2013-07-21 12:36:00,
2013-07-21 05:41:00,81.5,71.2,29.73,ESE,113,0.0,1.0,71,0.00,,,0.00,Wunderground v.1.15,2013-07-21 12:41:00,
2013-07-21 05:46:00,81.4,70.2,29.73,East,97,0.0,1.0,69,0.00,,,0.00,Wunderground v.1.15,2013-07-21 12:46:00,
2013-07-21 05:51:00,81.7,70.5,29.73,West,261,0.0,1.0,69,0.00,,,0.00,Wunderground v.1.15,2013-07-21 12:51:00,
2013-07-21 05:56:00,82.0,70.0,29.74,East,90,1.0,2.0,67,0.00,,,0.00,Wunderground v.1.15,2013-07-21 12:56:00,
2013-07-21 06:01:00,82.2,70.1,29.74,SE,134,1.0,1.0,67,0.00,,,0.00,Wunderground v.1.15,2013-07-21 13:01:00,
2013-07-21 06:06:00,82.4,70.3,29.74,SSE,152,1.0,2.0,67,0.00,,,0.00,Wunderground v.1.15,2013-07-21 13:06:00,
2013-07-21 06:11:00,82.6,70.5,29.74,ESE,105,0.0,1.0,67,0.00,,,0.00,Wunderground v.1.15,2013-07-21 13:11:00,
2013-07-21 06:16:00,82.9,70.8,29.74,ESE,108,1.0,2.0,67,0.00,,,0.00,Wunderground v.1.15,2013-07-21 13:16:00,
2013-07-21 06:21:00,83.1,71.0,29.74,East,96,0.0,1.0,67,0.00,,,0.00,Wunderground v.1.15,2013-07-21 13:21:00,
2013-07-21 06:26:00,83.2,71.5,29.75,West,281,0.0,2.0,68,0.00,,,0.00,Wunderground v.1.15,2013-07-21 13:26:00,
2013-07-21 06:31:00,83.3,71.6,29.75,WNW,282,0.0,1.0,68,0.00,,,0.00,Wunderground v.1.15,2013-07-21 13:31:00,
2013-07-21 06:36:00,83.4,71.3,29.75,East,81,0.0,1.0,67,0.00,,,0.00,Wunderground v.1.15,2013-07-21 13:36:00,
2013-07-21 06:41:00,83.7,71.1,29.75,NE,42,1.0,2.0,66,0.00,,,0.00,Wunderground v.1.15,2013-07-21 13:41:00,
2013-07-21 06:47:00,83.9,71.3,29.75,WSW,243,0.0,2.0,66,0.00,,,0.00,Wunderground v.1.15,2013-07-21 13:47:00,
2013-07-21 06:52:00,84.1,71.5,29.75,WSW,241,0.0,2.0,66,0.00,,,0.00,Wunderground v.1.15,2013-07-21 13:52:00,
2013-07-21 06:56:00,84.2,71.6,29.75,WNW,288,1.0,4.0,66,0.00,,,0.00,Wunderground v.1.15,2013-07-21 13:56:00,
2013-07-21 07:01:00,84.3,71.7,29.76,NE,52,1.0,3.0,66,0.00,,,0.00,Wunderground v.1.15,2013-07-21 14:01:00,
2013-07-21 07:06:00,84.4,71.8,29.76,NNW,330,0.0,3.0,66,0.00,,,0.00,Wunderground v.1.15,2013-07-21 14:06:00,
2013-07-21 07:11:00,84.4,71.8,29.76,NW,323,0.0,1.0,66,0.00,,,0.00,Wunderground v.1.15,2013-07-21 14:11:00,
2013-07-21 07:17:00,84.5,71.9,29.77,North,10,0.0,1.0,66,0.00,,,0.00,Wunderground v.1.15,2013-07-21 14:17:00,
2013-07-21 07:22:00,84.4,72.2,29.77,SSE,166,0.0,3.0,67,0.00,,,0.00,Wunderground v.1.15,2013-07-21 14:22:00,
2013-07-21 07:27:00,84.3,72.1,29.77,South,176,0.0,4.0,67,0.00,,,0.00,Wunderground v.1.15,2013-07-21 14:27:00,
2013-07-21 07:32:00,84.2,72.0,29.77,NNE,29,1.0,7.0,67,0.00,,,0.00,Wunderground v.1.15,2013-07-21 14:32:00,
2013-07-21 07:37:00,84.1,72.0,29.77,SSW,210,0.0,7.0,67,0.00,,,0.00,Wunderground v.1.15,2013-07-21 14:37:00,
2013-07-21 07:42:00,84.1,71.5,29.77,NNE,28,1.0,3.0,66,0.00,,,0.00,Wunderground v.1.15,2013-07-21 14:42:00,
2013-07-21 07:47:00,84.0,71.4,29.77,SSW,207,0.0,5.0,66,0.00,,,0.00,Wunderground v.1.15,2013-07-21 14:47:00,
2013-07-21 07:52:00,83.9,72.6,29.78,North,5,1.0,1.0,69,0.00,,,0.00,Wunderground v.1.15,2013-07-21 14:52:00,
2013-07-21 07:57:00,83.6,72.8,29.78,ESE,116,0.0,3.0,70,0.00,,,0.00,Wunderground v.1.15,2013-07-21 14:57:00,
2013-07-21 08:02:00,83.3,72.9,29.79,SE,124,1.0,1.0,71,0.00,,,0.00,Wunderground v.1.15,2013-07-21 15:02:00,
2013-07-21 08:07:00,83.0,72.2,29.79,East,90,0.0,4.0,70,0.00,,,0.00,Wunderground v.1.15,2013-07-21 15:07:00,
2013-07-21 08:12:00,82.8,72.0,29.79,ESE,103,1.0,3.0,70,0.00,,,0.00,Wunderground v.1.15,2013-07-21 15:12:00,
2013-07-21 08:17:00,82.6,72.2,29.79,ESE,108,1.0,3.0,71,0.00,,,0.00,Wunderground v.1.15,2013-07-21 15:17:00,
2013-07-21 08:22:00,82.5,72.1,29.80,ESE,103,1.0,5.0,71,0.00,,,0.00,Wunderground v.1.15,2013-07-21 15:22:00,
2013-07-21 08:27:00,82.4,72.0,29.80,North,350,1.0,5.0,71,0.00,,,0.00,Wunderground v.1.15,2013-07-21 15:27:00,
2013-07-21 08:32:00,82.3,72.4,29.80,NW,326,1.0,3.0,72,0.00,,,0.00,Wunderground v.1.15,2013-07-21 15:32:00,
2013-07-21 08:37:00,82.2,72.3,29.80,ENE,77,1.0,4.0,72,0.00,,,0.00,Wunderground v.1.15,2013-07-21 15:37:00,
2013-07-21 08:42:00,82.1,72.2,29.80,WNW,301,1.0,4.0,72,0.00,,,0.00,Wunderground v.1.15,2013-07-21 15:42:00,
2013-07-21 08:47:00,82.1,72.6,29.81,East,93,2.0,4.0,73,0.00,,,0.00,Wunderground v.1.15,2013-07-21 15:47:00,
2013-07-21 08:52:00,82.0,72.5,29.81,West,267,1.0,4.0,73,0.00,,,0.00,Wunderground v.1.15,2013-07-21 15:52:00,
2013-07-21 08:57:00,81.9,72.8,29.81,West,263,0.0,4.0,74,0.00,,,0.00,Wunderground v.1.15,2013-07-21 15:57:00,
2013-07-21 09:02:00,81.8,73.1,29.81,ENE,75,1.0,2.0,75,0.00,,,0.00,Wunderground v.1.15,2013-07-21 16:02:00,
2013-07-21 09:07:00,81.8,73.1,29.81,NW,314,0.0,2.0,75,0.00,,,0.00,Wunderground v.1.15,2013-07-21 16:07:00,
2013-07-21 09:12:00,81.7,73.4,29.81,NW,312,0.0,1.0,76,0.00,,,0.00,Wunderground v.1.15,2013-07-21 16:12:00,
2013-07-21 09:17:00,81.7,73.8,29.82,NNE,12,0.0,1.0,77,0.00,,,0.00,Wunderground v.1.15,2013-07-21 16:17:00,
2013-07-21 09:22:00,81.6,74.1,29.82,NW,319,0.0,3.0,78,0.00,,,0.00,Wunderground v.1.15,2013-07-21 16:22:00,
2013-07-21 09:27:00,81.4,73.9,29.82,ENE,77,1.0,3.0,78,0.00,,,0.00,Wunderground v.1.15,2013-07-21 16:27:00,
2013-07-21 09:32:00,81.3,74.2,29.82,NNW,332,0.0,1.0,79,0.00,,,0.00,Wunderground v.1.15,2013-07-21 16:32:00,
2013-07-21 09:37:00,81.1,74.3,29.83,NE,34,0.0,1.0,80,0.00,,,0.00,Wunderground v.1.15,2013-07-21 16:37:00,
2013-07-21 09:42:00,80.9,74.5,29.83,ESE,122,1.0,2.0,81,0.00,,,0.00,Wunderground v.1.15,2013-07-21 16:42:00,
2013-07-21 09:47:00,80.6,74.2,29.83,NW,307,0.0,4.0,81,0.00,,,0.00,Wunderground v.1.15,2013-07-21 16:47:00,
2013-07-21 09:52:00,80.3,74.3,29.83,North,1,0.0,2.0,82,0.00,,,0.00,Wunderground v.1.15,2013-07-21 16:52:00,
2013-07-21 09:57:00,80.1,74.1,29.83,SSW,210,0.0,2.0,82,0.00,,,0.00,Wunderground v.1.15,2013-07-21 16:57:00,
2013-07-21 10:02:00,80.0,74.4,29.83,North,355,1.0,1.0,83,0.00,,,0.00,Wunderground v.1.15,2013-07-21 17:02:00,
2013-07-21 10:07:00,79.9,74.3,29.83,NE,47,1.0,5.0,83,0.00,,,0.00,Wunderground v.1.15,2013-07-21 17:07:00,
2013-07-21 10:12:00,79.8,74.2,29.84,NW,312,0.0,1.0,83,0.00,,,0.00,Wunderground v.1.15,2013-07-21 17:12:00,
2013-07-21 10:17:00,79.9,74.3,29.85,West,281,0.0,2.0,83,0.00,,,0.00,Wunderground v.1.15,2013-07-21 17:17:00,
2013-07-21 10:22:00,79.9,74.6,29.85,NNW,341,0.0,3.0,84,0.00,,,0.00,Wunderground v.1.15,2013-07-21 17:22:00,
2013-07-21 10:27:00,79.8,74.5,29.85,SE,141,1.0,3.0,84,0.00,,,0.00,Wunderground v.1.15,2013-07-21 17:27:00,
2013-07-21 10:32:00,79.7,74.4,29.85,SSW,212,0.0,3.0,84,0.00,,,0.00,Wunderground v.1.15,2013-07-21 17:32:00,
2013-07-21 10:37:00,79.7,74.4,29.86,SSW,208,0.0,3.0,84,0.00,,,0.00,Wunderground v.1.15,2013-07-21 17:37:00,
2013-07-21 10:42:00,79.6,74.7,29.86,WNW,297,0.0,3.0,85,0.00,,,0.00,Wunderground v.1.15,2013-07-21 17:42:00,
2013-07-21 10:47:00,79.5,74.6,29.87,South,171,0.0,3.0,85,0.00,,,0.01,Wunderground v.1.15,2013-07-21 17:47:00,
2013-07-21 10:52:00,79.4,74.8,29.88,ESE,117,0.0,0.0,86,0.00,,,0.01,Wunderground v.1.15,2013-07-21 17:52:00,
2013-07-21 10:57:00,79.1,74.5,29.88,SE,134,0.0,2.0,86,0.05,,,0.02,Wunderground v.1.15,2013-07-21 17:57:00,
2013-07-21 11:02:00,78.8,73.9,29.89,ESE,105,8.0,11.0,85,0.27,,,0.05,Wunderground v.1.15,2013-07-21 18:02:00,
2013-07-21 11:07:00,77.7,73.2,29.89,East,101,6.0,17.0,86,0.96,,,0.14,Wunderground v.1.15,2013-07-21 18:07:00,
2013-07-21 11:12:00,76.5,72.7,29.89,SE,130,4.0,7.0,88,2.27,,,0.27,Wunderground v.1.15,2013-07-21 18:12:00,
2013-07-21 11:17:00,75.4,71.9,29.88,ESE,109,0.0,7.0,89,1.28,,,0.42,Wunderground v.1.15,2013-07-21 18:17:00,
2013-07-21 11:22:00,74.8,71.7,29.87,SW,217,1.0,3.0,90,0.58,,,0.51,Wunderground v.1.15,2013-07-21 18:22:00,
2013-07-21 11:27:00,74.3,71.5,29.86,SSE,148,0.0,4.0,91,0.14,,,0.52,Wunderground v.1.15,2013-07-21 18:27:00,
2013-07-21 11:33:00,74.1,71.6,29.86,SSE,148,0.0,1.0,92,0.12,,,0.53,Wunderground v.1.15,2013-07-21 18:33:00,
2013-07-21 11:38:00,74.1,71.6,29.86,South,169,0.0,1.0,92,0.11,,,0.54,Wunderground v.1.15,2013-07-21 18:38:00,
2013-07-21 11:43:00,74.1,71.6,29.86,WNW,297,1.0,3.0,92,0.10,,,0.55,Wunderground v.1.15,2013-07-21 18:43:00,
2013-07-21 11:48:00,74.0,71.5,29.86,WNW,288,1.0,3.0,92,0.09,,,0.56,Wunderground v.1.15,2013-07-21 18:48:00,
2013-07-21 11:53:00,74.1,71.9,29.87,NNW,328,0.0,2.0,93,0.10,,,0.57,Wunderground v.1.15,2013-07-21 18:53:00,
2013-07-21 11:58:00,74.2,72.0,29.87,NNW,328,0.0,2.0,93,0.10,,,0.57,Wunderground v.1.15,2013-07-21 18:58:00,
2013-07-21 12:03:00,74.3,72.1,29.87,NNW,348,1.0,2.0,93,0.08,,,0.58,Wunderground v.1.15,2013-07-21 19:03:00,
2013-07-21 12:08:00,74.3,72.1,29.87,NNW,345,3.0,4.0,93,0.09,,,0.59,Wunderground v.1.15,2013-07-21 19:08:00,
2013-07-21 12:13:00,74.3,72.1,29.87,NW,316,3.0,4.0,93,0.11,,,0.60,Wunderground v.1.15,2013-07-21 19:13:00,
2013-07-21 12:18:00,74.4,72.6,29.87,North,4,0.0,4.0,94,0.09,,,0.60,Wunderground v.1.15,2013-07-21 19:18:00,
2013-07-21 12:23:00,74.6,72.8,29.87,ENE,67,0.0,1.0,94,0.08,,,0.61,Wunderground v.1.15,2013-07-21 19:23:00,
2013-07-21 12:28:00,74.6,72.8,29.87,ENE,72,1.0,2.0,94,0.09,,,0.62,Wunderground v.1.15,2013-07-21 19:28:00,
2013-07-21 12:33:00,74.5,72.7,29.87,East,87,0.0,2.0,94,0.11,,,0.63,Wunderground v.1.15,2013-07-21 19:33:00,
2013-07-21 12:38:00,74.5,72.7,29.87,East,97,0.0,2.0,94,0.12,,,0.64,Wunderground v.1.15,2013-07-21 19:38:00,
2013-07-21 12:43:00,74.7,72.9,29.86,ENE,70,0.0,0.0,94,0.14,,,0.65,Wunderground v.1.15,2013-07-21 19:43:00,
2013-07-21 12:48:00,74.6,72.4,29.86,ENE,70,0.0,0.0,93,0.16,,,0.67,Wunderground v.1.15,2013-07-21 19:48:00,
2013-07-21 12:53:00,74.5,72.3,29.86,East,94,0.0,1.0,93,0.11,,,0.67,Wunderground v.1.15,2013-07-21 19:53:00,
2013-07-21 12:58:00,74.6,72.8,29.86,East,91,0.0,1.0,94,0.06,,,0.68,Wunderground v.1.15,2013-07-21 19:58:00,
2013-07-21 13:03:00,74.7,72.5,29.85,NNW,333,2.0,2.0,93,0.06,,,0.68,Wunderground v.1.15,2013-07-21 20:03:00,
2013-07-21 13:08:00,74.8,72.6,29.85,NNW,332,0.0,2.0,93,0.06,,,0.68,Wunderground v.1.15,2013-07-21 20:08:00,
2013-07-21 13:13:00,75.1,72.9,29.85,WNW,300,0.0,1.0,93,0.04,,,0.68,Wunderground v.1.15,2013-07-21 20:13:00,
2013-07-21 13:18:00,75.5,73.7,29.85,WNW,300,0.0,1.0,94,0.00,,,0.68,Wunderground v.1.15,2013-07-21 20:18:00,
2013-07-21 13:23:00,75.9,73.7,29.85,East,101,0.0,1.0,93,0.00,,,0.68,Wunderground v.1.15,2013-07-21 20:23:00,
2013-07-21 13:29:00,76.5,74.6,29.85,ESE,102,0.0,1.0,94,0.00,,,0.68,Wunderground v.1.15,2013-07-21 20:29:00,
2013-07-21 13:34:00,76.6,74.4,29.85,SW,224,0.0,1.0,93,0.00,,,0.68,Wunderground v.1.15,2013-07-21 20:34:00,
2013-07-21 13:39:00,76.9,74.4,29.85,SW,215,0.0,1.0,92,0.00,,,0.68,Wunderground v.1.15,2013-07-21 20:39:00,
2013-07-21 13:44:00,77.2,74.0,29.85,East,81,0.0,1.0,90,0.00,,,0.68,Wunderground v.1.15,2013-07-21 20:44:00,
2013-07-21 13:49:00,77.6,74.4,29.85,ESE,105,1.0,1.0,90,0.00,,,0.68,Wunderground v.1.15,2013-07-21 20:49:00,
2013-07-21 13:54:00,78.6,75.1,29.85,ESE,110,0.0,2.0,89,0.00,,,0.68,Wunderground v.1.15,2013-07-21 20:54:00,
2013-07-21 13:59:00,79.4,75.5,29.85,ESE,103,0.0,2.0,88,0.00,,,0.68,Wunderground v.1.15,2013-07-21 20:59:00,
2013-07-21 14:04:00,79.9,74.6,29.85,NW,314,0.0,1.0,84,0.00,,,0.68,Wunderground v.1.15,2013-07-21 21:04:00,
2013-07-21 14:09:00,80.5,75.2,29.85,ESE,113,0.0,1.0,84,0.00,,,0.68,Wunderground v.1.15,2013-07-21 21:09:00,
2013-07-21 14:14:00,81.0,75.0,29.85,ESE,113,1.0,1.0,82,0.00,,,0.68,Wunderground v.1.15,2013-07-21 21:14:00,
2013-07-21 14:19:00,80.8,73.7,29.85,NW,316,1.0,1.0,79,0.00,,,0.68,Wunderground v.1.15,2013-07-21 21:19:00,
2013-07-21 14:24:00,80.3,73.6,29.85,NNW,343,1.0,2.0,80,0.00,,,0.68,Wunderground v.1.15,2013-07-21 21:24:00,
2013-07-21 14:29:00,80.1,73.0,29.85,North,351,0.0,2.0,79,0.00,,,0.68,Wunderground v.1.15,2013-07-21 21:29:00,
2013-07-21 14:34:00,80.5,74.1,29.84,NW,311,0.0,2.0,81,0.00,,,0.68,Wunderground v.1.15,2013-07-21 21:34:00,
2013-07-21 14:39:00,80.9,73.8,29.84,WNW,297,2.0,3.0,79,0.00,,,0.68,Wunderground v.1.15,2013-07-21 21:39:00,
2013-07-21 14:44:00,80.8,72.9,29.84,NW,316,1.0,3.0,77,0.00,,,0.68,Wunderground v.1.15,2013-07-21 21:44:00,
2013-07-21 14:49:00,81.0,73.5,29.84,WNW,288,1.0,3.0,78,0.00,,,0.68,Wunderground v.1.15,2013-07-21 21:49:00,
2013-07-21 14:54:00,81.1,74.0,29.84,West,275,0.0,3.0,79,0.00,,,0.68,Wunderground v.1.15,2013-07-21 21:54:00,
2013-07-21 14:59:00,81.5,74.0,29.83,West,267,1.0,4.0,78,0.00,,,0.68,Wunderground v.1.15,2013-07-21 21:59:00,
2013-07-21 15:04:00,82.2,74.7,29.83,West,276,1.0,3.0,78,0.00,,,0.68,Wunderground v.1.15,2013-07-21 22:04:00,
2013-07-21 15:09:00,82.3,73.6,29.83,West,275,0.0,3.0,75,0.00,,,0.68,Wunderground v.1.15,2013-07-21 22:09:00,
2013-07-21 15:14:00,82.7,74.4,29.83,NW,319,2.0,5.0,76,0.00,,,0.68,Wunderground v.1.15,2013-07-21 22:14:00,
2013-07-21 15:19:00,82.6,73.9,29.83,WNW,297,2.0,5.0,75,0.00,,,0.68,Wunderground v.1.15,2013-07-21 22:19:00,
2013-07-21 15:24:00,82.8,74.5,29.83,West,274,0.0,4.0,76,0.00,,,0.68,Wunderground v.1.15,2013-07-21 22:24:00,
2013-07-21 15:29:00,83.1,73.9,29.83,NW,308,5.0,5.0,74,0.00,,,0.68,Wunderground v.1.15,2013-07-21 22:29:00,
2013-07-21 15:34:00,83.2,74.0,29.82,NW,321,3.0,5.0,74,0.00,,,0.68,Wunderground v.1.15,2013-07-21 22:34:00,
2013-07-21 15:39:00,83.3,72.9,29.82,NW,304,0.0,5.0,71,0.00,,,0.68,Wunderground v.1.15,2013-07-21 22:39:00,
2013-07-21 15:44:00,83.5,74.7,29.82,WSW,248,2.0,6.0,75,0.00,,,0.68,Wunderground v.1.15,2013-07-21 22:44:00,
2013-07-21 15:49:00,83.3,74.5,29.82,SE,131,3.0,7.0,75,0.00,,,0.68,Wunderground v.1.15,2013-07-21 22:49:00,
2013-07-21 15:54:00,83.6,74.4,29.81,NNE,12,1.0,5.0,74,0.00,,,0.68,Wunderground v.1.15,2013-07-21 22:54:00,
2013-07-21 15:59:00,83.7,73.3,29.81,NNE,12,6.0,6.0,71,0.00,,,0.68,Wunderground v.1.15,2013-07-21 22:59:00,
2013-07-21 16:04:00,83.5,74.3,29.81,NW,311,2.0,4.0,74,0.00,,,0.68,Wunderground v.1.15,2013-07-21 23:04:00,
2013-07-21 16:09:00,83.7,73.7,29.81,North,354,4.0,5.0,72,0.00,,,0.68,Wunderground v.1.15,2013-07-21 23:09:00,
2013-07-21 16:14:00,83.7,73.7,29.80,NW,310,3.0,4.0,72,0.00,,,0.68,Wunderground v.1.15,2013-07-21 23:14:00,
2013-07-21 16:19:00,83.8,73.4,29.80,NW,314,3.0,4.0,71,0.00,,,0.68,Wunderground v.1.15,2013-07-21 23:19:00,
2013-07-21 16:24:00,83.9,73.9,29.80,WSW,257,1.0,4.0,72,0.00,,,0.68,Wunderground v.1.15,2013-07-21 23:24:00,
2013-07-21 16:29:00,84.1,74.1,29.80,NW,324,4.0,5.0,72,0.00,,,0.68,Wunderground v.1.15,2013-07-21 23:29:00,
2013-07-21 16:34:00,84.2,74.2,29.80,NNW,330,4.0,6.0,72,0.00,,,0.68,Wunderground v.1.15,2013-07-21 23:34:00,
2013-07-21 16:40:00,83.9,73.9,29.80,NW,319,3.0,7.0,72,0.00,,,0.68,Wunderground v.1.15,2013-07-21 23:40:00,
2013-07-21 16:44:00,84.1,74.5,29.80,WNW,288,2.0,5.0,73,0.00,,,0.68,Wunderground v.1.15,2013-07-21 23:44:00,
2013-07-21 16:49:00,84.7,75.1,29.80,West,280,5.0,5.0,73,0.00,,,0.68,Wunderground v.1.15,2013-07-21 23:49:00,
2013-07-21 16:55:00,84.6,74.6,29.80,WNW,298,2.0,4.0,72,0.00,,,0.68,Wunderground v.1.15,2013-07-21 23:55:00,
2013-07-21 17:00:00,84.7,73.8,29.80,NW,304,2.0,3.0,70,0.00,,,0.68,Wunderground v.1.15,2013-07-22 00:00:00,
2013-07-21 17:05:00,84.8,74.3,29.80,WNW,296,2.0,3.0,71,0.00,,,0.68,Wunderground v.1.15,2013-07-22 00:05:00,
2013-07-21 17:10:00,85.0,74.5,29.80,West,280,3.0,3.0,71,0.00,,,0.68,Wunderground v.1.15,2013-07-22 00:10:00,
2013-07-21 17:15:00,85.0,74.1,29.79,NNW,337,3.0,6.0,70,0.00,,,0.68,Wunderground v.1.15,2013-07-22 00:15:00,
2013-07-21 17:20:00,85.0,74.1,29.79,NNW,338,0.0,3.0,70,0.00,,,0.68,Wunderground v.1.15,2013-07-22 00:20:00,
2013-07-21 17:25:00,85.6,74.3,29.79,WNW,298,2.0,3.0,69,0.00,,,0.68,Wunderground v.1.15,2013-07-22 00:25:00,
2013-07-21 17:30:00,86.0,74.6,29.79,NW,316,1.0,1.0,69,0.00,,,0.68,Wunderground v.1.15,2013-07-22 00:30:00,
2013-07-21 17:35:00,85.9,74.1,29.79,North,360,0.0,3.0,68,0.00,,,0.68,Wunderground v.1.15,2013-07-22 00:35:00,
2013-07-21 17:40:00,85.9,74.1,29.79,NW,312,1.0,4.0,68,0.00,,,0.68,Wunderground v.1.15,2013-07-22 00:40:00,
2013-07-21 17:45:00,86.0,74.2,29.79,WNW,299,1.0,4.0,68,0.00,,,0.68,Wunderground v.1.15,2013-07-22 00:45:00,
2013-07-21 17:50:00,86.5,75.5,29.79,WNW,300,1.0,1.0,70,0.00,,,0.68,Wunderground v.1.15,2013-07-22 00:50:00,
2013-07-21 17:55:00,86.8,74.5,29.79,West,278,0.0,2.0,67,0.00,,,0.68,Wunderground v.1.15,2013-07-22 00:55:00,
2013-07-21 18:00:00,87.1,75.7,29.79,NW,305,2.0,3.0,69,0.00,,,0.68,Wunderground v.1.15,2013-07-22 01:00:00,
2013-07-21 18:05:00,86.5,74.7,29.79,West,280,2.0,3.0,68,0.00,,,0.68,Wunderground v.1.15,2013-07-22 01:05:00,
2013-07-21 18:11:00,86.2,74.4,29.79,West,278,2.0,2.0,68,0.00,,,0.68,Wunderground v.1.15,2013-07-22 01:11:00,
2013-07-21 18:16:00,86.5,75.5,29.79,West,280,2.0,3.0,70,0.00,,,0.68,Wunderground v.1.15,2013-07-22 01:16:00,
2013-07-21 18:21:00,86.6,74.8,29.79,NW,309,1.0,2.0,68,0.00,,,0.68,Wunderground v.1.15,2013-07-22 01:21:00,
2013-07-21 18:26:00,86.5,74.7,29.79,NW,319,2.0,3.0,68,0.00,,,0.68,Wunderground v.1.15,2013-07-22 01:26:00,
2013-07-21 18:31:00,86.1,74.7,29.79,NNW,335,1.0,2.0,69,0.00,,,0.68,Wunderground v.1.15,2013-07-22 01:31:00,
2013-07-21 18:36:00,85.9,75.4,29.79,WNW,297,0.0,3.0,71,0.00,,,0.68,Wunderground v.1.15,2013-07-22 01:36:00,
2013-07-21 18:41:00,86.0,74.2,29.79,NW,311,1.0,1.0,68,0.00,,,0.68,Wunderground v.1.15,2013-07-22 01:41:00,
2013-07-21 18:46:00,86.5,75.1,29.79,NW,311,0.0,1.0,69,0.00,,,0.68,Wunderground v.1.15,2013-07-22 01:46:00,
2013-07-21 18:51:00,87.0,75.2,29.79,NW,311,0.0,0.0,68,0.00,,,0.68,Wunderground v.1.15,2013-07-22 01:51:00,
2013-07-21 18:56:00,87.4,74.6,29.79,NW,310,0.0,0.0,66,0.00,,,0.68,Wunderground v.1.15,2013-07-22 01:56:00,
2013-07-21 19:01:00,87.6,74.4,29.79,NW,310,0.0,1.0,65,0.00,,,0.68,Wunderground v.1.15,2013-07-22 02:01:00,
2013-07-21 19:06:00,87.2,74.5,29.79,NW,314,0.0,1.0,66,0.00,,,0.68,Wunderground v.1.15,2013-07-22 02:06:00,
2013-07-21 19:11:00,86.5,74.2,29.79,NW,314,0.0,1.0,67,0.00,,,0.68,Wunderground v.1.15,2013-07-22 02:11:00,
2013-07-21 19:16:00,85.9,75.0,29.79,NW,321,1.0,1.0,70,0.00,,,0.68,Wunderground v.1.15,2013-07-22 02:16:00,
2013-07-21 19:21:00,85.4,74.9,29.79,NNW,332,0.0,1.0,71,0.00,,,0.68,Wunderground v.1.15,2013-07-22 02:21:00,
2013-07-21 19:26:00,85.1,74.6,29.79,NNW,330,2.0,2.0,71,0.00,,,0.68,Wunderground v.1.15,2013-07-22 02:26:00,
2013-07-21 19:31:00,84.5,74.9,29.79,NNW,330,1.0,3.0,73,0.00,,,0.68,Wunderground v.1.15,2013-07-22 02:31:00,
2013-07-21 19:36:00,83.6,75.2,29.79,WNW,302,0.0,3.0,76,0.00,,,0.68,Wunderground v.1.15,2013-07-22 02:36:00,
2013-07-21 19:41:00,83.0,75.0,29.79,NW,314,2.0,2.0,77,0.00,,,0.68,Wunderground v.1.15,2013-07-22 02:41:00,
2013-07-21 19:46:00,82.8,74.1,29.79,WNW,303,1.0,2.0,75,0.00,,,0.68,Wunderground v.1.15,2013-07-22 02:46:00,
2013-07-21 19:51:00,82.9,74.6,29.79,NW,307,0.0,1.0,76,0.00,,,0.68,Wunderground v.1.15,2013-07-22 02:51:00,
2013-07-21 19:56:00,82.9,74.6,29.79,NW,307,0.0,1.0,76,0.00,,,0.68,Wunderground v.1.15,2013-07-22 02:56:00,
2013-07-21 20:01:00,82.8,74.8,29.79,NW,307,0.0,0.0,77,0.00,,,0.68,Wunderground v.1.15,2013-07-22 03:01:00,
2013-07-21 20:06:00,82.6,74.7,29.79,NW,319,0.0,0.0,77,0.00,,,0.68,Wunderground v.1.15,2013-07-22 03:06:00,
2013-07-21 20:11:00,82.3,74.4,29.79,North,360,0.0,1.0,77,0.00,,,0.68,Wunderground v.1.15,2013-07-22 03:11:00,
2013-07-21 20:16:00,82.0,74.5,29.79,North,359,0.0,1.0,78,0.00,,,0.68,Wunderground v.1.15,2013-07-22 03:16:00,
2013-07-21 20:21:00,81.9,75.1,29.80,West,274,2.0,2.0,80,0.00,,,0.68,Wunderground v.1.15,2013-07-22 03:21:00,
2013-07-21 20:26:00,81.4,75.0,29.80,West,280,0.0,2.0,81,0.00,,,0.68,Wunderground v.1.15,2013-07-22 03:26:00,
2013-07-21 20:31:00,81.2,75.2,29.80,West,280,0.0,1.0,82,0.00,,,0.68,Wunderground v.1.15,2013-07-22 03:31:00,
2013-07-21 20:36:00,81.0,74.6,29.81,WNW,283,0.0,1.0,81,0.00,,,0.68,Wunderground v.1.15,2013-07-22 03:36:00,
2013-07-21 20:41:00,81.0,74.6,29.81,WNW,296,0.0,1.0,81,0.00,,,0.68,Wunderground v.1.15,2013-07-22 03:41:00,
2013-07-21 20:46:00,80.9,74.5,29.81,WNW,297,0.0,1.0,81,0.00,,,0.68,Wunderground v.1.15,2013-07-22 03:46:00,
2013-07-21 20:51:00,80.8,74.4,29.81,NNE,15,0.0,0.0,81,0.00,,,0.68,Wunderground v.1.15,2013-07-22 03:51:00,
2013-07-21 20:56:00,80.7,74.3,29.81,NNE,29,0.0,1.0,81,0.00,,,0.68,Wunderground v.1.15,2013-07-22 03:56:00,
2013-07-21 21:01:00,80.9,74.5,29.82,ENE,62,0.0,0.0,81,0.00,,,0.68,Wunderground v.1.15,2013-07-22 04:01:00,
2013-07-21 21:02:00,81.0,74.6,29.82,ENE,62,0.0,0.0,81,0.00,,,0.68,Wunderground v.1.15,2013-07-22 04:02:00,
2013-07-21 21:07:00,81.1,74.7,29.83,North,352,1.0,1.0,81,0.00,,,0.68,Wunderground v.1.15,2013-07-22 04:07:00,
2013-07-21 21:12:00,80.8,74.8,29.83,NNW,340,1.0,2.0,82,0.00,,,0.68,Wunderground v.1.15,2013-07-22 04:12:00,
2013-07-21 21:17:00,80.2,74.6,29.83,NNW,335,0.0,2.0,83,0.00,,,0.68,Wunderground v.1.15,2013-07-22 04:17:00,
2013-07-21 21:22:00,79.9,74.6,29.84,NNW,334,1.0,1.0,84,0.00,,,0.68,Wunderground v.1.15,2013-07-22 04:22:00,
2013-07-21 21:27:00,79.8,74.9,29.84,NNW,339,0.0,1.0,85,0.00,,,0.68,Wunderground v.1.15,2013-07-22 04:27:00,
2013-07-21 21:32:00,79.6,74.7,29.84,NNW,338,0.0,0.0,85,0.00,,,0.68,Wunderground v.1.15,2013-07-22 04:32:00,
2013-07-21 21:37:00,79.6,75.0,29.84,NNW,339,0.0,0.0,86,0.00,,,0.68,Wunderground v.1.15,2013-07-22 04:37:00,
2013-07-21 21:42:00,79.7,75.5,29.84,NNW,339,0.0,0.0,87,0.00,,,0.68,Wunderground v.1.15,2013-07-22 04:42:00,
2013-07-21 21:47:00,79.7,75.5,29.84,ENE,58,0.0,1.0,87,0.00,,,0.68,Wunderground v.1.15,2013-07-22 04:47:00,
2013-07-21 21:52:00,79.8,75.6,29.84,ENE,58,0.0,1.0,87,0.00,,,0.68,Wunderground v.1.15,2013-07-22 04:52:00,
2013-07-21 21:57:00,79.8,75.6,29.84,NE,49,0.0,1.0,87,0.00,,,0.68,Wunderground v.1.15,2013-07-22 04:57:00,
2013-07-21 22:02:00,79.8,75.6,29.84,North,358,4.0,4.0,87,0.00,,,0.68,Wunderground v.1.15,2013-07-22 05:02:00,
2013-07-21 22:07:00,79.5,74.9,29.84,North,358,1.0,4.0,86,0.00,,,0.68,Wunderground v.1.15,2013-07-22 05:07:00,
2013-07-21 22:12:00,79.2,74.6,29.84,North,356,0.0,2.0,86,0.00,,,0.68,Wunderground v.1.15,2013-07-22 05:12:00,
2013-07-21 22:17:00,79.0,74.8,29.84,North,8,1.0,2.0,87,0.00,,,0.68,Wunderground v.1.15,2013-07-22 05:17:00,
2013-07-21 22:22:00,79.1,74.9,29.83,North,5,2.0,2.0,87,0.00,,,0.68,Wunderground v.1.15,2013-07-22 05:22:00,
2013-07-21 22:27:00,78.8,74.6,29.83,NNW,336,1.0,2.0,87,0.00,,,0.68,Wunderground v.1.15,2013-07-22 05:27:00,
2013-07-21 22:32:00,78.6,74.4,29.83,North,359,0.0,1.0,87,0.00,,,0.68,Wunderground v.1.15,2013-07-22 05:32:00,
2013-07-21 22:37:00,78.4,74.5,29.83,North,360,0.0,1.0,88,0.00,,,0.68,Wunderground v.1.15,2013-07-22 05:37:00,
2013-07-21 22:42:00,78.4,74.5,29.83,North,360,0.0,0.0,88,0.00,,,0.68,Wunderground v.1.15,2013-07-22 05:42:00,
2013-07-21 22:47:00,78.4,74.5,29.83,North,360,0.0,0.0,88,0.00,,,0.68,Wunderground v.1.15,2013-07-22 05:47:00,
2013-07-21 22:52:00,78.3,74.5,29.83,North,360,0.0,0.0,88,0.00,,,0.68,Wunderground v.1.15,2013-07-22 05:52:00,
2013-07-21 22:58:00,78.1,74.6,29.83,North,360,0.0,1.0,89,0.00,,,0.68,Wunderground v.1.15,2013-07-22 05:58:00,
2013-07-21 23:03:00,77.9,74.4,29.83,NNW,328,1.0,2.0,89,0.00,,,0.68,Wunderground v.1.15,2013-07-22 06:03:00,
2013-07-21 23:08:00,77.8,74.3,29.83,NNW,335,1.0,3.0,89,0.00,,,0.68,Wunderground v.1.15,2013-07-22 06:08:00,
2013-07-21 23:13:00,77.6,74.1,29.83,North,6,1.0,2.0,89,0.00,,,0.68,Wunderground v.1.15,2013-07-22 06:13:00,
2013-07-21 23:18:00,77.6,74.4,29.83,North,6,0.0,2.0,90,0.00,,,0.68,Wunderground v.1.15,2013-07-22 06:18:00,
2013-07-21 23:23:00,77.5,74.3,29.83,North,8,0.0,1.0,90,0.00,,,0.68,Wunderground v.1.15,2013-07-22 06:23:00,
2013-07-21 23:28:00,77.5,74.3,29.83,North,358,0.0,1.0,90,0.00,,,0.68,Wunderground v.1.15,2013-07-22 06:28:00,
2013-07-21 23:33:00,77.6,74.4,29.84,North,355,2.0,2.0,90,0.00,,,0.68,Wunderground v.1.15,2013-07-22 06:33:00,
2013-07-21 23:38:00,77.4,74.2,29.84,North,350,0.0,3.0,90,0.00,,,0.68,Wunderground v.1.15,2013-07-22 06:38:00,
2013-07-21 23:43:00,77.5,74.3,29.84,NNW,344,0.0,1.0,90,0.00,,,0.68,Wunderground v.1.15,2013-07-22 06:43:00,
2013-07-21 23:48:00,77.6,74.4,29.84,NE,47,1.0,2.0,90,0.00,,,0.68,Wunderground v.1.15,2013-07-22 06:48:00,
2013-07-21 23:53:00,77.7,74.5,29.84,NNE,27,0.0,1.0,90,0.00,,,0.68,Wunderground v.1.15,2013-07-22 06:53:00,
2013-07-21 23:58:00,77.7,74.5,29.85,NNE,27,0.0,1.0,90,0.00,,,0.68,Wunderground v.1.15,2013-07-22 06:58:00,